sensor_id;sensor_type;location;lat;lon;timestamp;temperature;humidity
7502;DHT22;3792;47.740;7.606;2023-02-01T00:02:21;5.30;99.90
7502;DHT22;3792;47.740;7.606;2023-02-01T00:04:48;5.30;99.90
7502;DHT22;3792;47.740;7.606;2023-02-01T00:07:15;5.20;99.90
7502;DHT22;3792;47.740;7.606;2023-02-01T00:09:42;5.20;99.90
7502;DHT22;3792;47.740;7.606;2023-02-01T00:12:09;5.20;99.90
7502;DHT22;3792;47.740;7.606;2023-02-01T00:14:38;5.20;99.90
7502;DHT22;3792;47.740;7.606;2023-02-01T00:17:06;5.20;99.90
7502;DHT22;3792;47.740;7.606;2023-02-01T00:19:34;5.20;99.90
7502;DHT22;3792;47.740;7.606;2023-02-01T00:22:01;5.20;99.90
7502;DHT22;3792;47.740;7.606;2023-02-01T00:24:28;5.20;99.90
7502;DHT22;3792;47.740;7.606;2023-02-01T00:26:55;5.20;99.90
7502;DHT22;3792;47.740;7.606;2023-02-01T00:29:22;5.20;99.90
7502;DHT22;3792;47.740;7.606;2023-02-01T00:31:51;5.10;99.90
7502;DHT22;3792;47.740;7.606;2023-02-01T00:34:19;5.10;99.90
7502;DHT22;3792;47.740;7.606;2023-02-01T00:36:46;5.10;99.90
7502;DHT22;3792;47.740;7.606;2023-02-01T00:39:14;5.10;99.90
7502;DHT22;3792;47.740;7.606;2023-02-01T00:41:41;5.10;99.90
7502;DHT22;3792;47.740;7.606;2023-02-01T00:44:09;5.20;99.90
7502;DHT22;3792;47.740;7.606;2023-02-01T00:46:36;5.10;99.90
7502;DHT22;3792;47.740;7.606;2023-02-01T00:49:04;5.10;99.90
7502;DHT22;3792;47.740;7.606;2023-02-01T00:51:32;5.10;99.90
7502;DHT22;3792;47.740;7.606;2023-02-01T00:54:00;5.10;99.90
7502;DHT22;3792;47.740;7.606;2023-02-01T00:56:27;5.10;99.90
7502;DHT22;3792;47.740;7.606;2023-02-01T00:58:54;5.20;99.90
7502;DHT22;3792;47.740;7.606;2023-02-01T01:01:22;5.10;99.90
7502;DHT22;3792;47.740;7.606;2023-02-01T01:03:51;5.20;99.90
7502;DHT22;3792;47.740;7.606;2023-02-01T01:06:22;5.20;99.90
7502;DHT22;3792;47.740;7.606;2023-02-01T01:08:51;5.10;99.90
7502;DHT22;3792;47.740;7.606;2023-02-01T01:11:21;5.10;99.90
7502;DHT22;3792;47.740;7.606;2023-02-01T01:13:49;5.00;99.90
7502;DHT22;3792;47.740;7.606;2023-02-01T01:16:17;5.00;99.90
7502;DHT22;3792;47.740;7.606;2023-02-01T01:18:45;5.10;99.90
7502;DHT22;3792;47.740;7.606;2023-02-01T01:21:14;5.10;99.90
7502;DHT22;3792;47.740;7.606;2023-02-01T01:23:43;5.10;99.90
7502;DHT22;3792;47.740;7.606;2023-02-01T01:26:13;5.10;99.90
7502;DHT22;3792;47.740;7.606;2023-02-01T01:28:41;5.00;99.90
7502;DHT22;3792;47.740;7.606;2023-02-01T01:31:09;5.00;99.90
7502;DHT22;3792;47.740;7.606;2023-02-01T01:33:36;4.90;99.90
7502;DHT22;3792;47.740;7.606;2023-02-01T01:36:05;4.90;99.90
7502;DHT22;3792;47.740;7.606;2023-02-01T01:38:32;4.90;99.90
7502;DHT22;3792;47.740;7.606;2023-02-01T01:41:01;4.90;99.90
7502;DHT22;3792;47.740;7.606;2023-02-01T01:43:47;4.90;99.90
7502;DHT22;3792;47.740;7.606;2023-02-01T01:46:16;4.90;99.90
7502;DHT22;3792;47.740;7.606;2023-02-01T01:48:43;4.80;99.90
7502;DHT22;3792;47.740;7.606;2023-02-01T01:51:13;4.90;99.90
7502;DHT22;3792;47.740;7.606;2023-02-01T01:53:44;4.80;99.90
7502;DHT22;3792;47.740;7.606;2023-02-01T01:56:14;4.90;99.90
7502;DHT22;3792;47.740;7.606;2023-02-01T01:58:41;4.80;99.90
7502;DHT22;3792;47.740;7.606;2023-02-01T02:01:08;4.80;99.90
7502;DHT22;3792;47.740;7.606;2023-02-01T02:03:39;4.90;99.90
7502;DHT22;3792;47.740;7.606;2023-02-01T02:06:12;4.90;99.90
7502;DHT22;3792;47.740;7.606;2023-02-01T02:08:42;4.90;99.90
7502;DHT22;3792;47.740;7.606;2023-02-01T02:11:14;4.90;99.90
7502;DHT22;3792;47.740;7.606;2023-02-01T02:13:45;4.90;99.90
7502;DHT22;3792;47.740;7.606;2023-02-01T02:16:32;4.90;99.90
7502;DHT22;3792;47.740;7.606;2023-02-01T02:19:22;4.90;99.90
7502;DHT22;3792;47.740;7.606;2023-02-01T02:22:12;4.90;99.90
7502;DHT22;3792;47.740;7.606;2023-02-01T02:25:15;4.80;99.90
7502;DHT22;3792;47.740;7.606;2023-02-01T02:27:49;4.80;99.90
7502;DHT22;3792;47.740;7.606;2023-02-01T02:30:37;4.80;99.90
7502;DHT22;3792;47.740;7.606;2023-02-01T02:33:47;4.80;99.90
7502;DHT22;3792;47.740;7.606;2023-02-01T02:36:23;4.80;99.90
7502;DHT22;3792;47.740;7.606;2023-02-01T02:39:02;4.80;99.90
7502;DHT22;3792;47.740;7.606;2023-02-01T02:41:36;4.80;99.90
7502;DHT22;3792;47.740;7.606;2023-02-01T02:44:28;4.70;99.90
7502;DHT22;3792;47.740;7.606;2023-02-01T02:47:21;4.70;99.90
7502;DHT22;3792;47.740;7.606;2023-02-01T02:50:03;4.80;99.90
7502;DHT22;3792;47.740;7.606;2023-02-01T02:52:52;4.80;99.90
7502;DHT22;3792;47.740;7.606;2023-02-01T02:55:38;4.70;99.90
7502;DHT22;3792;47.740;7.606;2023-02-01T02:58:07;4.80;99.90
7502;DHT22;3792;47.740;7.606;2023-02-01T03:00:55;4.70;99.90
7502;DHT22;3792;47.740;7.606;2023-02-01T03:03:40;4.70;99.90
7502;DHT22;3792;47.740;7.606;2023-02-01T03:06:26;4.70;99.90
7502;DHT22;3792;47.740;7.606;2023-02-01T03:08:55;4.70;99.90
7502;DHT22;3792;47.740;7.606;2023-02-01T03:11:24;4.80;99.90
7502;DHT22;3792;47.740;7.606;2023-02-01T03:14:14;4.70;99.90
7502;DHT22;3792;47.740;7.606;2023-02-01T03:16:45;4.70;99.90
7502;DHT22;3792;47.740;7.606;2023-02-01T03:19:17;4.70;99.90
7502;DHT22;3792;47.740;7.606;2023-02-01T03:21:48;4.80;99.90
7502;DHT22;3792;47.740;7.606;2023-02-01T03:24:21;4.80;99.90
7502;DHT22;3792;47.740;7.606;2023-02-01T03:27:02;4.80;99.90
7502;DHT22;3792;47.740;7.606;2023-02-01T03:29:36;4.70;99.90
7502;DHT22;3792;47.740;7.606;2023-02-01T03:32:04;4.70;99.90
7502;DHT22;3792;47.740;7.606;2023-02-01T03:34:32;4.70;99.90
7502;DHT22;3792;47.740;7.606;2023-02-01T03:37:04;4.70;99.90
7502;DHT22;3792;47.740;7.606;2023-02-01T03:39:34;4.70;99.90
7502;DHT22;3792;47.740;7.606;2023-02-01T03:42:06;4.70;99.90
7502;DHT22;3792;47.740;7.606;2023-02-01T03:44:38;4.70;99.90
7502;DHT22;3792;47.740;7.606;2023-02-01T03:47:09;4.80;99.90
7502;DHT22;3792;47.740;7.606;2023-02-01T03:49:40;4.80;99.90
7502;DHT22;3792;47.740;7.606;2023-02-01T03:52:13;4.70;99.90
7502;DHT22;3792;47.740;7.606;2023-02-01T03:54:41;4.70;99.90
7502;DHT22;3792;47.740;7.606;2023-02-01T03:57:11;4.70;99.90
7502;DHT22;3792;47.740;7.606;2023-02-01T03:59:39;4.60;99.90
7502;DHT22;3792;47.740;7.606;2023-02-01T04:02:07;4.60;99.90
7502;DHT22;3792;47.740;7.606;2023-02-01T04:04:34;4.60;99.90
7502;DHT22;3792;47.740;7.606;2023-02-01T04:07:01;4.60;99.90
7502;DHT22;3792;47.740;7.606;2023-02-01T04:09:30;4.70;99.90
7502;DHT22;3792;47.740;7.606;2023-02-01T04:11:57;4.70;99.90
7502;DHT22;3792;47.740;7.606;2023-02-01T04:14:24;4.70;99.90
7502;DHT22;3792;47.740;7.606;2023-02-01T04:16:52;4.70;99.90
7502;DHT22;3792;47.740;7.606;2023-02-01T04:19:19;4.70;99.90
7502;DHT22;3792;47.740;7.606;2023-02-01T04:21:46;4.70;99.90
7502;DHT22;3792;47.740;7.606;2023-02-01T04:24:13;4.70;99.90
7502;DHT22;3792;47.740;7.606;2023-02-01T04:26:42;4.70;99.90
7502;DHT22;3792;47.740;7.606;2023-02-01T04:29:09;4.60;99.90
7502;DHT22;3792;47.740;7.606;2023-02-01T04:31:36;4.60;99.90
7502;DHT22;3792;47.740;7.606;2023-02-01T04:34:03;4.60;99.90
7502;DHT22;3792;47.740;7.606;2023-02-01T04:36:30;4.60;99.90
7502;DHT22;3792;47.740;7.606;2023-02-01T04:38:57;4.70;99.90
7502;DHT22;3792;47.740;7.606;2023-02-01T04:41:24;4.60;99.90
7502;DHT22;3792;47.740;7.606;2023-02-01T04:43:53;4.70;99.90
7502;DHT22;3792;47.740;7.606;2023-02-01T04:46:20;4.60;99.90
7502;DHT22;3792;47.740;7.606;2023-02-01T04:48:47;4.60;99.90
7502;DHT22;3792;47.740;7.606;2023-02-01T04:51:14;4.70;99.90
7502;DHT22;3792;47.740;7.606;2023-02-01T04:53:41;4.60;99.90
7502;DHT22;3792;47.740;7.606;2023-02-01T04:56:08;4.70;99.90
7502;DHT22;3792;47.740;7.606;2023-02-01T04:58:36;4.70;99.90
7502;DHT22;3792;47.740;7.606;2023-02-01T05:01:04;4.70;99.90
7502;DHT22;3792;47.740;7.606;2023-02-01T05:03:32;4.60;99.90
7502;DHT22;3792;47.740;7.606;2023-02-01T05:05:59;4.60;99.90
7502;DHT22;3792;47.740;7.606;2023-02-01T05:08:27;4.60;99.90
7502;DHT22;3792;47.740;7.606;2023-02-01T05:10:55;4.60;99.90
7502;DHT22;3792;47.740;7.606;2023-02-01T05:13:22;4.60;99.90
7502;DHT22;3792;47.740;7.606;2023-02-01T05:16:08;4.60;99.90
7502;DHT22;3792;47.740;7.606;2023-02-01T05:18:35;4.50;99.90
7502;DHT22;3792;47.740;7.606;2023-02-01T05:21:02;4.60;99.90
7502;DHT22;3792;47.740;7.606;2023-02-01T05:23:29;4.60;99.90
7502;DHT22;3792;47.740;7.606;2023-02-01T05:25:58;4.60;99.90
7502;DHT22;3792;47.740;7.606;2023-02-01T05:28:26;4.70;99.90
7502;DHT22;3792;47.740;7.606;2023-02-01T05:30:54;4.70;99.90
7502;DHT22;3792;47.740;7.606;2023-02-01T05:33:22;4.70;99.90
7502;DHT22;3792;47.740;7.606;2023-02-01T05:35:49;4.70;99.90
7502;DHT22;3792;47.740;7.606;2023-02-01T05:38:17;4.70;99.90
7502;DHT22;3792;47.740;7.606;2023-02-01T05:40:44;4.70;99.90
7502;DHT22;3792;47.740;7.606;2023-02-01T05:43:15;4.70;99.90
7502;DHT22;3792;47.740;7.606;2023-02-01T05:45:42;4.60;99.90
7502;DHT22;3792;47.740;7.606;2023-02-01T05:48:09;4.60;99.90
7502;DHT22;3792;47.740;7.606;2023-02-01T05:50:39;4.60;99.90
7502;DHT22;3792;47.740;7.606;2023-02-01T05:53:06;4.70;99.90
7502;DHT22;3792;47.740;7.606;2023-02-01T05:55:33;4.60;99.90
7502;DHT22;3792;47.740;7.606;2023-02-01T05:58:00;4.60;99.90
7502;DHT22;3792;47.740;7.606;2023-02-01T06:00:27;4.70;99.90
7502;DHT22;3792;47.740;7.606;2023-02-01T06:02:54;4.70;99.90
7502;DHT22;3792;47.740;7.606;2023-02-01T06:05:21;4.70;99.90
7502;DHT22;3792;47.740;7.606;2023-02-01T06:07:50;4.70;99.90
7502;DHT22;3792;47.740;7.606;2023-02-01T06:10:17;4.70;99.90
7502;DHT22;3792;47.740;7.606;2023-02-01T06:12:44;4.80;99.90
7502;DHT22;3792;47.740;7.606;2023-02-01T06:15:12;4.80;99.90
7502;DHT22;3792;47.740;7.606;2023-02-01T06:17:41;4.80;99.90
7502;DHT22;3792;47.740;7.606;2023-02-01T06:20:10;4.80;99.90
7502;DHT22;3792;47.740;7.606;2023-02-01T06:22:38;4.70;99.90
7502;DHT22;3792;47.740;7.606;2023-02-01T06:25:08;4.70;99.90
7502;DHT22;3792;47.740;7.606;2023-02-01T06:27:36;4.70;99.90
7502;DHT22;3792;47.740;7.606;2023-02-01T06:30:06;4.70;99.90
7502;DHT22;3792;47.740;7.606;2023-02-01T06:32:33;4.70;99.90
7502;DHT22;3792;47.740;7.606;2023-02-01T06:35:00;4.70;99.90
7502;DHT22;3792;47.740;7.606;2023-02-01T06:37:27;4.60;99.90
7502;DHT22;3792;47.740;7.606;2023-02-01T06:39:55;4.60;99.90
7502;DHT22;3792;47.740;7.606;2023-02-01T06:42:23;4.60;99.90
7502;DHT22;3792;47.740;7.606;2023-02-01T06:44:51;4.60;99.90
7502;DHT22;3792;47.740;7.606;2023-02-01T06:47:18;4.60;99.90
7502;DHT22;3792;47.740;7.606;2023-02-01T06:49:45;4.60;99.90
7502;DHT22;3792;47.740;7.606;2023-02-01T06:52:12;4.60;99.90
7502;DHT22;3792;47.740;7.606;2023-02-01T06:54:39;4.60;99.90
7502;DHT22;3792;47.740;7.606;2023-02-01T06:57:06;4.50;99.90
7502;DHT22;3792;47.740;7.606;2023-02-01T06:59:34;4.60;99.90
7502;DHT22;3792;47.740;7.606;2023-02-01T07:02:01;4.60;99.90
7502;DHT22;3792;47.740;7.606;2023-02-01T07:04:28;4.60;99.90
7502;DHT22;3792;47.740;7.606;2023-02-01T07:06:55;4.60;99.90
7502;DHT22;3792;47.740;7.606;2023-02-01T07:09:23;4.60;99.90
7502;DHT22;3792;47.740;7.606;2023-02-01T07:11:50;4.60;99.90
7502;DHT22;3792;47.740;7.606;2023-02-01T07:14:17;4.60;99.90
7502;DHT22;3792;47.740;7.606;2023-02-01T07:16:45;4.60;99.90
7502;DHT22;3792;47.740;7.606;2023-02-01T07:19:12;4.60;99.90
7502;DHT22;3792;47.740;7.606;2023-02-01T07:21:39;4.50;99.90
7502;DHT22;3792;47.740;7.606;2023-02-01T07:24:06;4.60;99.90
7502;DHT22;3792;47.740;7.606;2023-02-01T07:26:34;4.60;99.90
7502;DHT22;3792;47.740;7.606;2023-02-01T07:29:01;4.60;99.90
7502;DHT22;3792;47.740;7.606;2023-02-01T07:31:28;4.80;99.90
7502;DHT22;3792;47.740;7.606;2023-02-01T07:33:56;5.30;99.90
7502;DHT22;3792;47.740;7.606;2023-02-01T07:36:24;5.80;99.90
7502;DHT22;3792;47.740;7.606;2023-02-01T07:38:51;5.90;99.90
7502;DHT22;3792;47.740;7.606;2023-02-01T07:41:18;5.80;99.90
7502;DHT22;3792;47.740;7.606;2023-02-01T07:43:45;5.50;99.90
7502;DHT22;3792;47.740;7.606;2023-02-01T07:46:12;5.40;99.90
7502;DHT22;3792;47.740;7.606;2023-02-01T07:48:41;5.10;99.90
7502;DHT22;3792;47.740;7.606;2023-02-01T07:51:11;5.10;99.90
7502;DHT22;3792;47.740;7.606;2023-02-01T07:53:39;4.90;99.90
7502;DHT22;3792;47.740;7.606;2023-02-01T07:56:11;4.90;99.90
7502;DHT22;3792;47.740;7.606;2023-02-01T07:58:39;4.90;99.90
7502;DHT22;3792;47.740;7.606;2023-02-01T08:01:10;4.90;99.90
7502;DHT22;3792;47.740;7.606;2023-02-01T08:03:47;4.80;99.90
7502;DHT22;3792;47.740;7.606;2023-02-01T08:06:15;4.80;99.90
7502;DHT22;3792;47.740;7.606;2023-02-01T08:08:42;4.80;99.90
7502;DHT22;3792;47.740;7.606;2023-02-01T08:11:10;4.80;99.90
7502;DHT22;3792;47.740;7.606;2023-02-01T08:13:38;4.90;99.90
7502;DHT22;3792;47.740;7.606;2023-02-01T08:16:07;4.90;99.90
7502;DHT22;3792;47.740;7.606;2023-02-01T08:18:35;4.90;99.90
7502;DHT22;3792;47.740;7.606;2023-02-01T08:21:06;4.90;99.90
7502;DHT22;3792;47.740;7.606;2023-02-01T08:23:36;4.90;99.90
7502;DHT22;3792;47.740;7.606;2023-02-01T08:26:11;5.00;99.90
7502;DHT22;3792;47.740;7.606;2023-02-01T08:28:40;5.00;99.90
7502;DHT22;3792;47.740;7.606;2023-02-01T08:31:09;5.00;99.90
7502;DHT22;3792;47.740;7.606;2023-02-01T08:33:36;5.00;99.90
7502;DHT22;3792;47.740;7.606;2023-02-01T08:36:05;5.10;99.90
7502;DHT22;3792;47.740;7.606;2023-02-01T08:38:32;5.00;99.90
7502;DHT22;3792;47.740;7.606;2023-02-01T08:41:06;5.10;99.90
7502;DHT22;3792;47.740;7.606;2023-02-01T08:43:34;5.10;99.90
7502;DHT22;3792;47.740;7.606;2023-02-01T08:46:01;5.20;99.90
7502;DHT22;3792;47.740;7.606;2023-02-01T08:48:30;5.20;99.90
7502;DHT22;3792;47.740;7.606;2023-02-01T08:50:57;5.30;99.90
7502;DHT22;3792;47.740;7.606;2023-02-01T08:53:24;5.30;99.90
7502;DHT22;3792;47.740;7.606;2023-02-01T08:55:51;5.30;99.90
7502;DHT22;3792;47.740;7.606;2023-02-01T08:58:20;5.20;99.90
7502;DHT22;3792;47.740;7.606;2023-02-01T09:00:47;5.30;99.90
7502;DHT22;3792;47.740;7.606;2023-02-01T09:03:15;5.30;99.90
7502;DHT22;3792;47.740;7.606;2023-02-01T09:05:42;5.30;99.90
7502;DHT22;3792;47.740;7.606;2023-02-01T09:08:11;5.30;99.90
7502;DHT22;3792;47.740;7.606;2023-02-01T09:10:40;5.30;99.90
7502;DHT22;3792;47.740;7.606;2023-02-01T09:13:08;5.30;99.90
7502;DHT22;3792;47.740;7.606;2023-02-01T09:15:37;5.30;99.90
7502;DHT22;3792;47.740;7.606;2023-02-01T09:18:04;5.40;99.90
7502;DHT22;3792;47.740;7.606;2023-02-01T09:20:31;5.40;99.90
7502;DHT22;3792;47.740;7.606;2023-02-01T09:22:58;5.40;99.90
7502;DHT22;3792;47.740;7.606;2023-02-01T09:25:26;5.50;99.90
7502;DHT22;3792;47.740;7.606;2023-02-01T09:27:53;5.50;99.90
7502;DHT22;3792;47.740;7.606;2023-02-01T09:30:20;5.50;99.90
7502;DHT22;3792;47.740;7.606;2023-02-01T09:32:48;5.50;99.90
7502;DHT22;3792;47.740;7.606;2023-02-01T09:35:15;5.60;99.90
7502;DHT22;3792;47.740;7.606;2023-02-01T09:37:42;5.60;99.90
7502;DHT22;3792;47.740;7.606;2023-02-01T09:40:13;5.60;99.90
7502;DHT22;3792;47.740;7.606;2023-02-01T09:43:05;5.60;99.90
7502;DHT22;3792;47.740;7.606;2023-02-01T09:45:40;5.60;99.90
7502;DHT22;3792;47.740;7.606;2023-02-01T09:48:14;5.60;99.90
7502;DHT22;3792;47.740;7.606;2023-02-01T09:50:47;5.70;99.90
7502;DHT22;3792;47.740;7.606;2023-02-01T09:53:19;5.70;99.90
7502;DHT22;3792;47.740;7.606;2023-02-01T09:55:50;5.70;99.90
7502;DHT22;3792;47.740;7.606;2023-02-01T09:58:22;5.70;99.90
7502;DHT22;3792;47.740;7.606;2023-02-01T10:00:53;5.70;99.90
7502;DHT22;3792;47.740;7.606;2023-02-01T10:03:24;5.70;99.90
7502;DHT22;3792;47.740;7.606;2023-02-01T10:06:20;5.80;99.90
7502;DHT22;3792;47.740;7.606;2023-02-01T10:11:54;5.80;99.90
7502;DHT22;3792;47.740;7.606;2023-02-01T10:14:45;5.90;99.90
7502;DHT22;3792;47.740;7.606;2023-02-01T10:17:23;6.00;99.90
7502;DHT22;3792;47.740;7.606;2023-02-01T10:20:00;6.00;99.90
7502;DHT22;3792;47.740;7.606;2023-02-01T10:22:38;6.10;99.90
7502;DHT22;3792;47.740;7.606;2023-02-01T10:25:14;6.20;99.90
7502;DHT22;3792;47.740;7.606;2023-02-01T10:27:45;6.30;99.90
7502;DHT22;3792;47.740;7.606;2023-02-01T10:30:18;6.30;99.90
7502;DHT22;3792;47.740;7.606;2023-02-01T10:32:48;6.40;99.90
7502;DHT22;3792;47.740;7.606;2023-02-01T10:35:22;6.40;99.90
7502;DHT22;3792;47.740;7.606;2023-02-01T10:37:52;6.50;99.90
7502;DHT22;3792;47.740;7.606;2023-02-01T10:40:21;6.50;99.90
7502;DHT22;3792;47.740;7.606;2023-02-01T10:42:50;6.50;99.90
7502;DHT22;3792;47.740;7.606;2023-02-01T10:45:20;6.60;99.90
7502;DHT22;3792;47.740;7.606;2023-02-01T10:47:49;6.90;99.90
7502;DHT22;3792;47.740;7.606;2023-02-01T10:50:34;7.30;99.90
7502;DHT22;3792;47.740;7.606;2023-02-01T10:53:09;7.40;99.90
7502;DHT22;3792;47.740;7.606;2023-02-01T10:55:39;7.50;99.90
7502;DHT22;3792;47.740;7.606;2023-02-01T10:58:15;7.70;99.90
7502;DHT22;3792;47.740;7.606;2023-02-01T11:00:46;7.70;99.90
7502;DHT22;3792;47.740;7.606;2023-02-01T11:06:11;8.00;99.90
7502;DHT22;3792;47.740;7.606;2023-02-01T11:08:49;7.90;99.90
7502;DHT22;3792;47.740;7.606;2023-02-01T11:11:18;7.70;99.90
7502;DHT22;3792;47.740;7.606;2023-02-01T11:13:52;7.70;99.90
7502;DHT22;3792;47.740;7.606;2023-02-01T11:16:19;7.90;99.90
7502;DHT22;3792;47.740;7.606;2023-02-01T11:18:53;8.10;99.90
7502;DHT22;3792;47.740;7.606;2023-02-01T11:21:22;8.30;99.90
7502;DHT22;3792;47.740;7.606;2023-02-01T11:23:50;8.50;99.90
7502;DHT22;3792;47.740;7.606;2023-02-01T11:26:21;8.40;99.90
7502;DHT22;3792;47.740;7.606;2023-02-01T11:28:56;8.20;99.90
7502;DHT22;3792;47.740;7.606;2023-02-01T11:31:25;8.10;99.90
7502;DHT22;3792;47.740;7.606;2023-02-01T11:34:04;8.10;99.90
7502;DHT22;3792;47.740;7.606;2023-02-01T11:36:36;7.90;99.90
7502;DHT22;3792;47.740;7.606;2023-02-01T11:39:24;7.60;99.90
7502;DHT22;3792;47.740;7.606;2023-02-01T11:41:59;7.60;99.90
7502;DHT22;3792;47.740;7.606;2023-02-01T11:44:31;7.60;99.90
7502;DHT22;3792;47.740;7.606;2023-02-01T11:47:22;7.60;99.90
7502;DHT22;3792;47.740;7.606;2023-02-01T11:49:51;7.60;99.90
7502;DHT22;3792;47.740;7.606;2023-02-01T11:52:39;7.70;99.90
7502;DHT22;3792;47.740;7.606;2023-02-01T11:55:21;7.50;99.90
7502;DHT22;3792;47.740;7.606;2023-02-01T11:58:01;7.50;99.90
7502;DHT22;3792;47.740;7.606;2023-02-01T12:00:49;7.60;99.90
7502;DHT22;3792;47.740;7.606;2023-02-01T12:03:52;7.80;99.90
7502;DHT22;3792;47.740;7.606;2023-02-01T12:06:33;7.80;99.90
7502;DHT22;3792;47.740;7.606;2023-02-01T12:09:14;7.70;99.90
7502;DHT22;3792;47.740;7.606;2023-02-01T12:11:51;7.60;99.90
7502;DHT22;3792;47.740;7.606;2023-02-01T12:14:33;7.70;99.90
7502;DHT22;3792;47.740;7.606;2023-02-01T12:17:28;7.60;99.90
7502;DHT22;3792;47.740;7.606;2023-02-01T12:20:10;7.50;99.90
7502;DHT22;3792;47.740;7.606;2023-02-01T12:22:49;7.50;99.90
7502;DHT22;3792;47.740;7.606;2023-02-01T12:25:34;7.40;99.90
7502;DHT22;3792;47.740;7.606;2023-02-01T12:28:20;7.20;99.90
7502;DHT22;3792;47.740;7.606;2023-02-01T12:31:10;7.10;99.90
7502;DHT22;3792;47.740;7.606;2023-02-01T12:33:50;7.10;99.90
7502;DHT22;3792;47.740;7.606;2023-02-01T12:36:29;7.10;99.90
7502;DHT22;3792;47.740;7.606;2023-02-01T12:39:04;7.10;99.90
7502;DHT22;3792;47.740;7.606;2023-02-01T12:41:49;7.20;99.90
7502;DHT22;3792;47.740;7.606;2023-02-01T12:44:27;7.20;99.90
7502;DHT22;3792;47.740;7.606;2023-02-01T12:46:58;7.20;99.90
7502;DHT22;3792;47.740;7.606;2023-02-01T12:49:35;7.20;99.90
7502;DHT22;3792;47.740;7.606;2023-02-01T12:52:10;7.20;99.90
7502;DHT22;3792;47.740;7.606;2023-02-01T12:54:42;7.10;99.90
7502;DHT22;3792;47.740;7.606;2023-02-01T12:57:17;7.00;99.90
7502;DHT22;3792;47.740;7.606;2023-02-01T12:59:52;6.90;99.90
7502;DHT22;3792;47.740;7.606;2023-02-01T13:02:27;6.90;99.90
7502;DHT22;3792;47.740;7.606;2023-02-01T13:05:03;6.80;99.90
7502;DHT22;3792;47.740;7.606;2023-02-01T13:07:36;6.80;99.90
7502;DHT22;3792;47.740;7.606;2023-02-01T13:10:12;6.80;99.90
7502;DHT22;3792;47.740;7.606;2023-02-01T13:12:50;6.80;99.90
7502;DHT22;3792;47.740;7.606;2023-02-01T13:15:23;6.80;99.90
7502;DHT22;3792;47.740;7.606;2023-02-01T13:17:52;6.80;99.90
7502;DHT22;3792;47.740;7.606;2023-02-01T13:20:24;6.80;99.90
7502;DHT22;3792;47.740;7.606;2023-02-01T13:22:59;6.70;99.90
7502;DHT22;3792;47.740;7.606;2023-02-01T13:25:33;6.70;99.90
7502;DHT22;3792;47.740;7.606;2023-02-01T13:28:05;6.70;99.90
7502;DHT22;3792;47.740;7.606;2023-02-01T13:30:41;6.70;99.90
7502;DHT22;3792;47.740;7.606;2023-02-01T13:33:29;6.60;99.90
7502;DHT22;3792;47.740;7.606;2023-02-01T13:36:18;6.60;99.90
7502;DHT22;3792;47.740;7.606;2023-02-01T13:39:30;6.60;99.90
7502;DHT22;3792;47.740;7.606;2023-02-01T13:42:02;6.70;99.90
7502;DHT22;3792;47.740;7.606;2023-02-01T13:44:36;6.70;99.90
7502;DHT22;3792;47.740;7.606;2023-02-01T13:47:13;6.70;99.90
7502;DHT22;3792;47.740;7.606;2023-02-01T13:49:43;6.80;99.90
7502;DHT22;3792;47.740;7.606;2023-02-01T13:52:25;6.80;99.90
7502;DHT22;3792;47.740;7.606;2023-02-01T13:55:03;6.80;99.90
7502;DHT22;3792;47.740;7.606;2023-02-01T13:57:37;6.80;99.90
7502;DHT22;3792;47.740;7.606;2023-02-01T14:00:24;6.90;99.90
7502;DHT22;3792;47.740;7.606;2023-02-01T14:03:16;6.80;99.90
7502;DHT22;3792;47.740;7.606;2023-02-01T14:06:15;6.90;99.90
7502;DHT22;3792;47.740;7.606;2023-02-01T14:08:45;6.90;99.90
7502;DHT22;3792;47.740;7.606;2023-02-01T14:11:36;6.90;99.90
7502;DHT22;3792;47.740;7.606;2023-02-01T14:17:36;6.90;99.90
7502;DHT22;3792;47.740;7.606;2023-02-01T14:23:38;6.90;99.90
7502;DHT22;3792;47.740;7.606;2023-02-01T14:26:20;6.90;99.90
7502;DHT22;3792;47.740;7.606;2023-02-01T14:28:55;6.90;99.90
7502;DHT22;3792;47.740;7.606;2023-02-01T14:31:46;6.80;99.90
7502;DHT22;3792;47.740;7.606;2023-02-01T14:34:20;6.90;99.90
7502;DHT22;3792;47.740;7.606;2023-02-01T14:36:51;6.80;99.90
7502;DHT22;3792;47.740;7.606;2023-02-01T14:39:34;6.80;99.90
7502;DHT22;3792;47.740;7.606;2023-02-01T14:42:12;6.80;99.90
7502;DHT22;3792;47.740;7.606;2023-02-01T14:44:41;6.80;99.90
7502;DHT22;3792;47.740;7.606;2023-02-01T14:47:29;6.80;99.90
7502;DHT22;3792;47.740;7.606;2023-02-01T14:50:30;6.80;99.90
7502;DHT22;3792;47.740;7.606;2023-02-01T14:53:14;6.80;99.90
7502;DHT22;3792;47.740;7.606;2023-02-01T14:55:46;6.80;99.90
7502;DHT22;3792;47.740;7.606;2023-02-01T14:58:19;6.80;99.90
7502;DHT22;3792;47.740;7.606;2023-02-01T15:00:49;6.90;99.90
7502;DHT22;3792;47.740;7.606;2023-02-01T15:03:37;6.90;99.90
7502;DHT22;3792;47.740;7.606;2023-02-01T15:06:28;6.90;99.90
7502;DHT22;3792;47.740;7.606;2023-02-01T15:08:59;6.90;99.90
7502;DHT22;3792;47.740;7.606;2023-02-01T15:11:27;6.80;99.90
7502;DHT22;3792;47.740;7.606;2023-02-01T15:13:54;6.80;99.90
7502;DHT22;3792;47.740;7.606;2023-02-01T15:16:24;6.80;99.90
7502;DHT22;3792;47.740;7.606;2023-02-01T15:19:07;6.80;99.90
7502;DHT22;3792;47.740;7.606;2023-02-01T15:21:45;6.80;99.90
7502;DHT22;3792;47.740;7.606;2023-02-01T15:24:14;6.80;99.90
7502;DHT22;3792;47.740;7.606;2023-02-01T15:26:41;6.80;99.90
7502;DHT22;3792;47.740;7.606;2023-02-01T15:29:12;6.80;99.90
7502;DHT22;3792;47.740;7.606;2023-02-01T15:31:41;6.80;99.90
7502;DHT22;3792;47.740;7.606;2023-02-01T15:34:10;6.80;99.90
7502;DHT22;3792;47.740;7.606;2023-02-01T15:36:37;6.80;99.90
7502;DHT22;3792;47.740;7.606;2023-02-01T15:39:22;6.70;99.90
7502;DHT22;3792;47.740;7.606;2023-02-01T15:42:10;6.70;99.90
7502;DHT22;3792;47.740;7.606;2023-02-01T15:44:42;6.70;99.90
7502;DHT22;3792;47.740;7.606;2023-02-01T15:47:14;6.70;99.90
7502;DHT22;3792;47.740;7.606;2023-02-01T15:49:44;6.70;99.90
7502;DHT22;3792;47.740;7.606;2023-02-01T15:52:21;6.70;99.90
7502;DHT22;3792;47.740;7.606;2023-02-01T15:54:51;6.70;99.90
7502;DHT22;3792;47.740;7.606;2023-02-01T15:57:23;6.70;99.90
7502;DHT22;3792;47.740;7.606;2023-02-01T15:59:57;6.80;99.90
7502;DHT22;3792;47.740;7.606;2023-02-01T16:02:32;6.80;99.90
7502;DHT22;3792;47.740;7.606;2023-02-01T16:04:59;6.70;99.90
7502;DHT22;3792;47.740;7.606;2023-02-01T16:07:31;6.70;99.90
7502;DHT22;3792;47.740;7.606;2023-02-01T16:10:01;6.70;99.90
7502;DHT22;3792;47.740;7.606;2023-02-01T16:12:45;6.70;99.90
7502;DHT22;3792;47.740;7.606;2023-02-01T16:15:13;6.70;99.90
7502;DHT22;3792;47.740;7.606;2023-02-01T16:17:41;6.70;99.90
7502;DHT22;3792;47.740;7.606;2023-02-01T16:20:10;6.80;99.90
7502;DHT22;3792;47.740;7.606;2023-02-01T16:22:38;6.80;99.90
7502;DHT22;3792;47.740;7.606;2023-02-01T16:25:06;6.80;99.90
7502;DHT22;3792;47.740;7.606;2023-02-01T16:27:34;6.70;99.90
7502;DHT22;3792;47.740;7.606;2023-02-01T16:30:03;6.70;99.90
7502;DHT22;3792;47.740;7.606;2023-02-01T16:32:30;6.70;99.90
7502;DHT22;3792;47.740;7.606;2023-02-01T16:34:58;6.70;99.90
7502;DHT22;3792;47.740;7.606;2023-02-01T16:37:25;6.70;99.90
7502;DHT22;3792;47.740;7.606;2023-02-01T16:39:53;6.70;99.90
7502;DHT22;3792;47.740;7.606;2023-02-01T16:42:20;6.60;99.90
7502;DHT22;3792;47.740;7.606;2023-02-01T16:44:49;6.60;99.90
7502;DHT22;3792;47.740;7.606;2023-02-01T16:47:18;6.60;99.90
7502;DHT22;3792;47.740;7.606;2023-02-01T16:49:47;6.60;99.90
7502;DHT22;3792;47.740;7.606;2023-02-01T16:52:17;6.60;99.90
7502;DHT22;3792;47.740;7.606;2023-02-01T16:54:45;6.60;99.90
7502;DHT22;3792;47.740;7.606;2023-02-01T16:57:14;6.60;99.90
7502;DHT22;3792;47.740;7.606;2023-02-01T16:59:42;6.60;99.90
7502;DHT22;3792;47.740;7.606;2023-02-01T17:02:13;6.60;99.90
7502;DHT22;3792;47.740;7.606;2023-02-01T17:04:41;6.60;99.90